sensor_id;sensor_type;location;lat;lon;timestamp;temperature;humidity
72940;DHT22;61094;51.154;13.570;2023-08-17T00:04:11;21.80;99.90
72940;DHT22;61094;51.154;13.570;2023-08-17T00:09:12;21.80;99.90
72940;DHT22;61094;51.154;13.570;2023-08-17T00:14:16;21.70;99.90
72940;DHT22;61094;51.154;13.570;2023-08-17T00:19:17;21.60;99.90
72940;DHT22;61094;51.154;13.570;2023-08-17T00:24:19;21.30;99.90
72940;DHT22;61094;51.154;13.570;2023-08-17T00:29:22;21.10;99.90
72940;DHT22;61094;51.154;13.570;2023-08-17T00:34:24;21.00;99.90
72940;DHT22;61094;51.154;13.570;2023-08-17T00:39:26;20.90;99.90
72940;DHT22;61094;51.154;13.570;2023-08-17T00:44:30;20.70;99.90
72940;DHT22;61094;51.154;13.570;2023-08-17T00:49:32;20.60;99.90
72940;DHT22;61094;51.154;13.570;2023-08-17T00:54:35;20.60;99.90
72940;DHT22;61094;51.154;13.570;2023-08-17T00:59:38;20.50;99.90
72940;DHT22;61094;51.154;13.570;2023-08-17T01:04:40;20.50;99.90
72940;DHT22;61094;51.154;13.570;2023-08-17T01:09:42;20.50;99.90
72940;DHT22;61094;51.154;13.570;2023-08-17T01:14:56;20.50;99.90
72940;DHT22;61094;51.154;13.570;2023-08-17T01:20:02;20.40;99.90
72940;DHT22;61094;51.154;13.570;2023-08-17T01:25:09;20.40;99.90
72940;DHT22;61094;51.154;13.570;2023-08-17T01:30:13;20.40;99.90
72940;DHT22;61094;51.154;13.570;2023-08-17T01:35:21;20.30;99.90
72940;DHT22;61094;51.154;13.570;2023-08-17T01:40:31;20.30;99.90
72940;DHT22;61094;51.154;13.570;2023-08-17T01:45:34;20.30;99.90
72940;DHT22;61094;51.154;13.570;2023-08-17T01:50:36;20.30;99.90
72940;DHT22;61094;51.154;13.570;2023-08-17T01:55:39;20.20;99.90
72940;DHT22;61094;51.154;13.570;2023-08-17T02:00:41;20.20;99.90
72940;DHT22;61094;51.154;13.570;2023-08-17T02:05:44;20.10;99.90
72940;DHT22;61094;51.154;13.570;2023-08-17T02:10:49;20.10;99.90
72940;DHT22;61094;51.154;13.570;2023-08-17T02:15:51;20.10;99.90
72940;DHT22;61094;51.154;13.570;2023-08-17T02:20:53;20.00;99.90
72940;DHT22;61094;51.154;13.570;2023-08-17T02:25:56;19.90;99.90
72940;DHT22;61094;51.154;13.570;2023-08-17T02:30:58;19.80;99.90
72940;DHT22;61094;51.154;13.570;2023-08-17T02:36:02;19.80;99.90
72940;DHT22;61094;51.154;13.570;2023-08-17T02:41:05;19.80;99.90
72940;DHT22;61094;51.154;13.570;2023-08-17T02:46:07;19.80;99.90
72940;DHT22;61094;51.154;13.570;2023-08-17T02:51:11;19.80;99.90
72940;DHT22;61094;51.154;13.570;2023-08-17T02:56:14;19.80;99.90
72940;DHT22;61094;51.154;13.570;2023-08-17T03:01:16;19.80;99.90
72940;DHT22;61094;51.154;13.570;2023-08-17T03:06:18;19.90;99.90
72940;DHT22;61094;51.154;13.570;2023-08-17T03:11:21;19.80;99.90
72940;DHT22;61094;51.154;13.570;2023-08-17T03:16:23;19.80;99.90
72940;DHT22;61094;51.154;13.570;2023-08-17T03:21:25;19.70;99.90
72940;DHT22;61094;51.154;13.570;2023-08-17T03:26:28;19.70;99.90
72940;DHT22;61094;51.154;13.570;2023-08-17T03:31:30;19.70;99.90
72940;DHT22;61094;51.154;13.570;2023-08-17T03:36:32;19.70;99.90
72940;DHT22;61094;51.154;13.570;2023-08-17T03:41:35;19.70;99.90
72940;DHT22;61094;51.154;13.570;2023-08-17T03:46:37;19.60;99.90
72940;DHT22;61094;51.154;13.570;2023-08-17T03:51:39;19.60;99.90
72940;DHT22;61094;51.154;13.570;2023-08-17T03:56:43;19.40;99.90
72940;DHT22;61094;51.154;13.570;2023-08-17T04:01:44;19.40;99.90
72940;DHT22;61094;51.154;13.570;2023-08-17T04:06:46;19.40;99.90
72940;DHT22;61094;51.154;13.570;2023-08-17T04:11:49;19.40;99.90
72940;DHT22;61094;51.154;13.570;2023-08-17T04:16:51;19.40;99.90
72940;DHT22;61094;51.154;13.570;2023-08-17T04:21:53;19.50;99.90
72940;DHT22;61094;51.154;13.570;2023-08-17T04:26:57;19.40;99.90
72940;DHT22;61094;51.154;13.570;2023-08-17T04:31:58;19.50;99.90
72940;DHT22;61094;51.154;13.570;2023-08-17T04:37:00;19.60;99.90
72940;DHT22;61094;51.154;13.570;2023-08-17T04:42:04;19.60;99.90
72940;DHT22;61094;51.154;13.570;2023-08-17T04:47:09;19.70;99.90
72940;DHT22;61094;51.154;13.570;2023-08-17T04:52:11;19.80;99.90
72940;DHT22;61094;51.154;13.570;2023-08-17T04:57:14;19.70;99.90
72940;DHT22;61094;51.154;13.570;2023-08-17T05:02:16;19.80;99.90
72940;DHT22;61094;51.154;13.570;2023-08-17T05:07:18;19.90;99.90
72940;DHT22;61094;51.154;13.570;2023-08-17T05:12:21;19.90;99.90
72940;DHT22;61094;51.154;13.570;2023-08-17T05:17:23;20.00;99.90
72940;DHT22;61094;51.154;13.570;2023-08-17T05:22:25;19.80;99.90
72940;DHT22;61094;51.154;13.570;2023-08-17T05:27:30;19.80;99.90
72940;DHT22;61094;51.154;13.570;2023-08-17T05:32:31;19.90;99.90
72940;DHT22;61094;51.154;13.570;2023-08-17T05:37:33;20.00;99.90
72940;DHT22;61094;51.154;13.570;2023-08-17T05:42:36;20.00;99.90
72940;DHT22;61094;51.154;13.570;2023-08-17T05:47:38;20.00;99.90
72940;DHT22;61094;51.154;13.570;2023-08-17T05:52:40;20.20;99.90
72940;DHT22;61094;51.154;13.570;2023-08-17T05:57:43;20.20;99.90
72940;DHT22;61094;51.154;13.570;2023-08-17T06:02:45;20.20;99.90
72940;DHT22;61094;51.154;13.570;2023-08-17T06:07:50;20.30;99.90
72940;DHT22;61094;51.154;13.570;2023-08-17T06:12:53;20.30;99.90
72940;DHT22;61094;51.154;13.570;2023-08-17T06:17:55;20.30;99.90
72940;DHT22;61094;51.154;13.570;2023-08-17T06:22:57;20.40;99.90
72940;DHT22;61094;51.154;13.570;2023-08-17T06:28:00;20.50;99.90
72940;DHT22;61094;51.154;13.570;2023-08-17T06:33:03;20.80;99.90
72940;DHT22;61094;51.154;13.570;2023-08-17T06:38:05;21.10;99.90
72940;DHT22;61094;51.154;13.570;2023-08-17T06:43:10;21.20;99.90
72940;DHT22;61094;51.154;13.570;2023-08-17T06:48:12;21.30;99.90
72940;DHT22;61094;51.154;13.570;2023-08-17T06:53:14;21.50;99.90
72940;DHT22;61094;51.154;13.570;2023-08-17T06:58:17;21.80;99.90
72940;DHT22;61094;51.154;13.570;2023-08-17T07:03:19;22.00;99.90
72940;DHT22;61094;51.154;13.570;2023-08-17T07:08:20;22.10;99.90
72940;DHT22;61094;51.154;13.570;2023-08-17T07:13:24;22.30;99.90
72940;DHT22;61094;51.154;13.570;2023-08-17T07:18:25;22.80;99.90
72940;DHT22;61094;51.154;13.570;2023-08-17T07:23:27;23.00;99.90
72940;DHT22;61094;51.154;13.570;2023-08-17T07:28:30;23.10;99.90
72940;DHT22;61094;51.154;13.570;2023-08-17T07:33:32;23.10;99.90
72940;DHT22;61094;51.154;13.570;2023-08-17T07:38:34;23.20;99.90
72940;DHT22;61094;51.154;13.570;2023-08-17T07:43:37;23.60;99.90
72940;DHT22;61094;51.154;13.570;2023-08-17T07:48:39;24.30;99.90
72940;DHT22;61094;51.154;13.570;2023-08-17T07:53:40;24.50;99.90
72940;DHT22;61094;51.154;13.570;2023-08-17T07:58:44;24.80;99.90
72940;DHT22;61094;51.154;13.570;2023-08-17T08:03:45;25.10;99.90
72940;DHT22;61094;51.154;13.570;2023-08-17T08:08:47;25.10;99.90
72940;DHT22;61094;51.154;13.570;2023-08-17T08:13:50;25.30;99.30
72940;DHT22;61094;51.154;13.570;2023-08-17T08:18:52;25.50;97.10
72940;DHT22;61094;51.154;13.570;2023-08-17T08:23:54;25.50;98.80
72940;DHT22;61094;51.154;13.570;2023-08-17T08:28:57;25.70;96.20
72940;DHT22;61094;51.154;13.570;2023-08-17T08:33:59;25.90;96.40
72940;DHT22;61094;51.154;13.570;2023-08-17T08:39:00;26.20;95.60
72940;DHT22;61094;51.154;13.570;2023-08-17T08:44:04;26.50;95.40
72940;DHT22;61094;51.154;13.570;2023-08-17T08:49:06;26.60;91.00
72940;DHT22;61094;51.154;13.570;2023-08-17T08:54:13;26.70;93.30
72940;DHT22;61094;51.154;13.570;2023-08-17T08:59:17;27.00;90.20
72940;DHT22;61094;51.154;13.570;2023-08-17T09:04:19;27.30;83.70
72940;DHT22;61094;51.154;13.570;2023-08-17T09:09:21;27.30;86.50
72940;DHT22;61094;51.154;13.570;2023-08-17T09:14:25;27.00;90.80
72940;DHT22;61094;51.154;13.570;2023-08-17T09:19:27;26.80;90.90
72940;DHT22;61094;51.154;13.570;2023-08-17T09:24:34;26.40;91.80
72940;DHT22;61094;51.154;13.570;2023-08-17T09:29:42;26.10;92.80
72940;DHT22;61094;51.154;13.570;2023-08-17T09:34:46;26.20;93.80
72940;DHT22;61094;51.154;13.570;2023-08-17T09:39:48;26.60;92.20
72940;DHT22;61094;51.154;13.570;2023-08-17T09:44:51;27.10;90.50
72940;DHT22;61094;51.154;13.570;2023-08-17T09:49:54;27.20;90.10
72940;DHT22;61094;51.154;13.570;2023-08-17T09:54:56;27.50;84.10
72940;DHT22;61094;51.154;13.570;2023-08-17T10:00:03;27.90;83.70
72940;DHT22;61094;51.154;13.570;2023-08-17T10:05:09;28.30;83.50
72940;DHT22;61094;51.154;13.570;2023-08-17T10:10:14;28.40;79.30
72940;DHT22;61094;51.154;13.570;2023-08-17T10:15:19;28.60;75.90
72940;DHT22;61094;51.154;13.570;2023-08-17T10:20:24;29.10;72.90
72940;DHT22;61094;51.154;13.570;2023-08-17T10:25:28;29.50;71.90
72940;DHT22;61094;51.154;13.570;2023-08-17T10:30:32;30.00;68.30
72940;DHT22;61094;51.154;13.570;2023-08-17T10:35:35;30.50;59.80
72940;DHT22;61094;51.154;13.570;2023-08-17T10:40:39;30.70;53.40
72940;DHT22;61094;51.154;13.570;2023-08-17T10:45:42;31.10;58.10
72940;DHT22;61094;51.154;13.570;2023-08-17T10:50:59;31.10;54.80
72940;DHT22;61094;51.154;13.570;2023-08-17T10:56:01;31.00;52.30
72940;DHT22;61094;51.154;13.570;2023-08-17T11:01:04;31.30;57.10
72940;DHT22;61094;51.154;13.570;2023-08-17T11:06:16;31.60;48.70
72940;DHT22;61094;51.154;13.570;2023-08-17T11:11:20;31.60;49.00
72940;DHT22;61094;51.154;13.570;2023-08-17T11:16:24;32.00;49.60
72940;DHT22;61094;51.154;13.570;2023-08-17T11:21:26;32.30;45.90
72940;DHT22;61094;51.154;13.570;2023-08-17T11:26:28;32.20;43.90
72940;DHT22;61094;51.154;13.570;2023-08-17T11:31:31;32.30;44.40
72940;DHT22;61094;51.154;13.570;2023-08-17T11:36:33;32.60;45.30
72940;DHT22;61094;51.154;13.570;2023-08-17T11:41:35;32.60;43.00
72940;DHT22;61094;51.154;13.570;2023-08-17T11:46:38;32.60;37.90
72940;DHT22;61094;51.154;13.570;2023-08-17T11:51:40;32.40;40.40
72940;DHT22;61094;51.154;13.570;2023-08-17T11:56:42;32.30;39.30
72940;DHT22;61094;51.154;13.570;2023-08-17T12:01:45;32.30;38.10
72940;DHT22;61094;51.154;13.570;2023-08-17T12:06:47;32.40;40.60
72940;DHT22;61094;51.154;13.570;2023-08-17T12:11:57;32.60;40.00
72940;DHT22;61094;51.154;13.570;2023-08-17T12:17:01;32.60;38.50
72940;DHT22;61094;51.154;13.570;2023-08-17T12:22:03;32.50;38.50
72940;DHT22;61094;51.154;13.570;2023-08-17T12:27:06;32.60;40.80
72940;DHT22;61094;51.154;13.570;2023-08-17T12:32:09;32.40;41.80
72940;DHT22;61094;51.154;13.570;2023-08-17T12:37:11;32.60;42.10
72940;DHT22;61094;51.154;13.570;2023-08-17T12:42:14;33.00;40.60
72940;DHT22;61094;51.154;13.570;2023-08-17T12:47:17;33.50;39.30
72940;DHT22;61094;51.154;13.570;2023-08-17T12:52:19;33.20;35.50
72940;DHT22;61094;51.154;13.570;2023-08-17T12:57:22;33.10;36.80
72940;DHT22;61094;51.154;13.570;2023-08-17T13:02:27;33.20;37.80
72940;DHT22;61094;51.154;13.570;2023-08-17T13:07:29;33.40;36.20
72940;DHT22;61094;51.154;13.570;2023-08-17T13:12:31;33.40;36.50
72940;DHT22;61094;51.154;13.570;2023-08-17T13:17:34;33.50;37.10
72940;DHT22;61094;51.154;13.570;2023-08-17T13:22:36;33.80;37.10
72940;DHT22;61094;51.154;13.570;2023-08-17T13:27:38;34.00;35.40
72940;DHT22;61094;51.154;13.570;2023-08-17T13:32:41;33.80;34.40
72940;DHT22;61094;51.154;13.570;2023-08-17T13:37:43;33.60;34.40
72940;DHT22;61094;51.154;13.570;2023-08-17T13:42:45;33.30;37.30
72940;DHT22;61094;51.154;13.570;2023-08-17T13:47:49;32.70;38.10
72940;DHT22;61094;51.154;13.570;2023-08-17T13:52:51;32.30;40.20
72940;DHT22;61094;51.154;13.570;2023-08-17T13:57:54;31.80;41.20
72940;DHT22;61094;51.154;13.570;2023-08-17T14:02:57;31.00;44.50
72940;DHT22;61094;51.154;13.570;2023-08-17T14:07:59;30.30;47.30
72940;DHT22;61094;51.154;13.570;2023-08-17T14:13:01;29.80;51.90
72940;DHT22;61094;51.154;13.570;2023-08-17T14:18:06;29.70;52.00
72940;DHT22;61094;51.154;13.570;2023-08-17T14:23:08;29.60;54.90
72940;DHT22;61094;51.154;13.570;2023-08-17T14:28:09;29.60;53.00
72940;DHT22;61094;51.154;13.570;2023-08-17T14:33:13;29.50;53.10
72940;DHT22;61094;51.154;13.570;2023-08-17T14:38:16;29.40;52.60
72940;DHT22;61094;51.154;13.570;2023-08-17T14:43:18;29.20;50.90
72940;DHT22;61094;51.154;13.570;2023-08-17T14:48:21;29.20;52.10
72940;DHT22;61094;51.154;13.570;2023-08-17T14:53:25;29.20;52.00
72940;DHT22;61094;51.154;13.570;2023-08-17T14:58:27;29.10;53.20
72940;DHT22;61094;51.154;13.570;2023-08-17T15:03:31;29.00;60.70
72940;DHT22;61094;51.154;13.570;2023-08-17T15:08:33;29.20;51.50
72940;DHT22;61094;51.154;13.570;2023-08-17T15:13:35;29.40;51.60
72940;DHT22;61094;51.154;13.570;2023-08-17T15:18:44;29.50;51.80
72940;DHT22;61094;51.154;13.570;2023-08-17T15:23:52;29.60;53.60
72940;DHT22;61094;51.154;13.570;2023-08-17T15:29:05;29.50;52.60
72940;DHT22;61094;51.154;13.570;2023-08-17T15:34:08;29.70;52.60
72940;DHT22;61094;51.154;13.570;2023-08-17T15:39:10;29.60;55.40
72940;DHT22;61094;51.154;13.570;2023-08-17T15:44:14;29.60;58.00
72940;DHT22;61094;51.154;13.570;2023-08-17T15:49:18;29.50;54.30
72940;DHT22;61094;51.154;13.570;2023-08-17T15:54:21;29.50;58.00
72940;DHT22;61094;51.154;13.570;2023-08-17T15:59:23;29.50;56.10
72940;DHT22;61094;51.154;13.570;2023-08-17T16:04:26;29.50;55.00
72940;DHT22;61094;51.154;13.570;2023-08-17T16:09:29;29.50;59.20
72940;DHT22;61094;51.154;13.570;2023-08-17T16:14:31;29.40;58.70
72940;DHT22;61094;51.154;13.570;2023-08-17T16:19:35;29.40;66.50
72940;DHT22;61094;51.154;13.570;2023-08-17T16:24:37;29.30;64.90
72940;DHT22;61094;51.154;13.570;2023-08-17T16:29:39;29.00;72.50
72940;DHT22;61094;51.154;13.570;2023-08-17T16:34:43;28.90;84.40
72940;DHT22;61094;51.154;13.570;2023-08-17T16:39:45;28.80;83.10
72940;DHT22;61094;51.154;13.570;2023-08-17T16:44:47;28.60;84.90
72940;DHT22;61094;51.154;13.570;2023-08-17T16:49:50;28.60;82.50
72940;DHT22;61094;51.154;13.570;2023-08-17T16:54:52;28.50;82.20
72940;DHT22;61094;51.154;13.570;2023-08-17T16:59:54;28.10;83.10
72940;DHT22;61094;51.154;13.570;2023-08-17T17:04:57;28.00;82.60
72940;DHT22;61094;51.154;13.570;2023-08-17T17:09:59;27.80;83.30
72940;DHT22;61094;51.154;13.570;2023-08-17T17:15:01;27.70;82.80
72940;DHT22;61094;51.154;13.570;2023-08-17T17:20:06;27.60;83.90
72940;DHT22;61094;51.154;13.570;2023-08-17T17:25:08;27.40;84.00
72940;DHT22;61094;51.154;13.570;2023-08-17T17:30:11;27.30;85.00
72940;DHT22;61094;51.154;13.570;2023-08-17T17:35:14;27.20;85.90
72940;DHT22;61094;51.154;13.570;2023-08-17T17:40:16;27.10;88.00
72940;DHT22;61094;51.154;13.570;2023-08-17T17:45:18;27.10;89.10
72940;DHT22;61094;51.154;13.570;2023-08-17T17:50:21;27.00;90.00
72940;DHT22;61094;51.154;13.570;2023-08-17T17:55:23;26.90;88.20
72940;DHT22;61094;51.154;13.570;2023-08-17T18:00:25;26.70;92.40
72940;DHT22;61094;51.154;13.570;2023-08-17T18:05:28;26.60;92.30
72940;DHT22;61094;51.154;13.570;2023-08-17T18:10:29;26.50;92.20
72940;DHT22;61094;51.154;13.570;2023-08-17T18:15:32;26.40;92.90
72940;DHT22;61094;51.154;13.570;2023-08-17T18:20:35;26.30;93.60
72940;DHT22;61094;51.154;13.570;2023-08-17T18:25:37;26.10;94.50
72940;DHT22;61094;51.154;13.570;2023-08-17T18:30:39;26.00;94.00
72940;DHT22;61094;51.154;13.570;2023-08-17T18:35:42;25.90;95.00
72940;DHT22;61094;51.154;13.570;2023-08-17T18:40:44;25.90;94.90
72940;DHT22;61094;51.154;13.570;2023-08-17T18:45:46;25.80;95.30
72940;DHT22;61094;51.154;13.570;2023-08-17T18:50:50;25.70;96.20
72940;DHT22;61094;51.154;13.570;2023-08-17T18:55:52;25.60;96.50
72940;DHT22;61094;51.154;13.570;2023-08-17T19:00:53;25.50;97.00
72940;DHT22;61094;51.154;13.570;2023-08-17T19:05:57;25.40;97.80
72940;DHT22;61094;51.154;13.570;2023-08-17T19:10:59;25.30;98.60
72940;DHT22;61094;51.154;13.570;2023-08-17T19:16:01;25.20;99.00
72940;DHT22;61094;51.154;13.570;2023-08-17T19:21:04;25.10;99.90
72940;DHT22;61094;51.154;13.570;2023-08-17T19:26:08;25.00;99.90
72940;DHT22;61094;51.154;13.570;2023-08-17T19:31:10;24.90;99.90
72940;DHT22;61094;51.154;13.570;2023-08-17T19:36:15;24.90;99.90
72940;DHT22;61094;51.154;13.570;2023-08-17T19:41:17;24.80;99.90
72940;DHT22;61094;51.154;13.570;2023-08-17T19:46:19;24.70;99.90
72940;DHT22;61094;51.154;13.570;2023-08-17T19:51:22;24.60;99.90
72940;DHT22;61094;51.154;13.570;2023-08-17T19:56:25;24.60;99.90
72940;DHT22;61094;51.154;13.570;2023-08-17T20:01:27;24.50;99.90
72940;DHT22;61094;51.154;13.570;2023-08-17T20:06:31;24.50;99.90
72940;DHT22;61094;51.154;13.570;2023-08-17T20:11:33;24.40;99.90
72940;DHT22;61094;51.154;13.570;2023-08-17T20:16:36;24.30;99.90
72940;DHT22;61094;51.154;13.570;2023-08-17T20:21:39;24.20;99.90
72940;DHT22;61094;51.154;13.570;2023-08-17T20:26:41;24.20;99.90
72940;DHT22;61094;51.154;13.570;2023-08-17T20:31:43;24.30;99.90
72940;DHT22;61094;51.154;13.570;2023-08-17T20:36:46;24.20;99.90
72940;DHT22;61094;51.154;13.570;2023-08-17T20:41:48;24.20;99.90
72940;DHT22;61094;51.154;13.570;2023-08-17T20:46:50;24.20;99.90
72940;DHT22;61094;51.154;13.570;2023-08-17T20:51:53;24.10;99.90
72940;DHT22;61094;51.154;13.570;2023-08-17T20:56:55;24.10;99.90
72940;DHT22;61094;51.154;13.570;2023-08-17T21:01:57;24.00;99.60
72940;DHT22;61094;51.154;13.570;2023-08-17T21:07:00;24.00;98.90
72940;DHT22;61094;51.154;13.570;2023-08-17T21:12:03;23.90;98.50
72940;DHT22;61094;51.154;13.570;2023-08-17T21:17:06;23.90;98.30
72940;DHT22;61094;51.154;13.570;2023-08-17T21:22:10;23.80;98.20
72940;DHT22;61094;51.154;13.570;2023-08-17T21:27:12;23.80;98.00
72940;DHT22;61094;51.154;13.570;2023-08-17T21:32:17;23.80;98.30
72940;DHT22;61094;51.154;13.570;2023-08-17T21:37:28;23.70;99.70
72940;DHT22;61094;51.154;13.570;2023-08-17T21:42:30;23.60;99.90
72940;DHT22;61094;51.154;13.570;2023-08-17T21:47:31;23.50;99.90
72940;DHT22;61094;51.154;13.570;2023-08-17T21:52:38;23.40;99.90
72940;DHT22;61094;51.154;13.570;2023-08-17T21:57:40;23.40;99.90
72940;DHT22;61094;51.154;13.570;2023-08-17T22:02:42;23.30;99.90
72940;DHT22;61094;51.154;13.570;2023-08-17T22:07:46;23.20;99.90
72940;DHT22;61094;51.154;13.570;2023-08-17T22:12:48;23.10;99.90
72940;DHT22;61094;51.154;13.570;2023-08-17T22:17:50;23.00;99.90
72940;DHT22;61094;51.154;13.570;2023-08-17T22:22:53;22.80;99.90
72940;DHT22;61094;51.154;13.570;2023-08-17T22:27:55;22.60;99.90
72940;DHT22;61094;51.154;13.570;2023-08-17T22:32:57;22.50;99.90
72940;DHT22;61094;51.154;13.570;2023-08-17T22:38:00;22.60;99.90
72940;DHT22;61094;51.154;13.570;2023-08-17T22:43:02;22.60;99.90
72940;DHT22;61094;51.154;13.570;2023-08-17T22:48:04;22.60;99.90
72940;DHT22;61094;51.154;13.570;2023-08-17T22:53:07;22.50;99.90
72940;DHT22;61094;51.154;13.570;2023-08-17T22:58:09;22.40;99.90
72940;DHT22;61094;51.154;13.570;2023-08-17T23:03:11;22.40;99.90
72940;DHT22;61094;51.154;13.570;2023-08-17T23:08:14;22.30;99.90
72940;DHT22;61094;51.154;13.570;2023-08-17T23:13:16;22.20;99.90
72940;DHT22;61094;51.154;13.570;2023-08-17T23:18:18;22.10;99.90
72940;DHT22;61094;51.154;13.570;2023-08-17T23:23:21;22.00;99.90
72940;DHT22;61094;51.154;13.570;2023-08-17T23:28:23;21.90;99.90
72940;DHT22;61094;51.154;13.570;2023-08-17T23:33:25;21.80;99.90
72940;DHT22;61094;51.154;13.570;2023-08-17T23:38:28;21.60;99.90
72940;DHT22;61094;51.154;13.570;2023-08-17T23:43:30;21.40;99.90
72940;DHT22;61094;51.154;13.570;2023-08-17T23:48:32;21.30;99.90
72940;DHT22;61094;51.154;13.570;2023-08-17T23:53:35;20.90;99.90
72940;DHT22;61094;51.154;13.570;2023-08-17T23:58:36;20.70;99.90
